sensor_id;sensor_type;location;lat;lon;timestamp;temperature;humidity
68801;SHT31;55784;50.734;7.086;2023-05-29T00:01:20;16.78;69.46
68801;SHT31;55784;50.734;7.086;2023-05-29T00:03:46;16.72;69.69
68801;SHT31;55784;50.734;7.086;2023-05-29T00:06:12;16.65;70.00
68801;SHT31;55784;50.734;7.086;2023-05-29T00:08:38;16.61;70.18
68801;SHT31;55784;50.734;7.086;2023-05-29T00:11:04;16.55;70.47
68801;SHT31;55784;50.734;7.086;2023-05-29T00:13:29;16.52;70.56
68801;SHT31;55784;50.734;7.086;2023-05-29T00:15:54;16.51;70.68
68801;SHT31;55784;50.734;7.086;2023-05-29T00:18:20;16.48;70.91
68801;SHT31;55784;50.734;7.086;2023-05-29T00:20:46;16.44;71.19
68801;SHT31;55784;50.734;7.086;2023-05-29T00:23:11;16.42;71.31
68801;SHT31;55784;50.734;7.086;2023-05-29T00:25:36;16.37;71.53
68801;SHT31;55784;50.734;7.086;2023-05-29T00:28:01;16.35;71.55
68801;SHT31;55784;50.734;7.086;2023-05-29T00:30:27;16.30;71.76
68801;SHT31;55784;50.734;7.086;2023-05-29T00:32:52;16.22;72.06
68801;SHT31;55784;50.734;7.086;2023-05-29T00:35:19;16.18;72.36
68801;SHT31;55784;50.734;7.086;2023-05-29T00:37:44;16.14;72.62
68801;SHT31;55784;50.734;7.086;2023-05-29T00:40:10;16.08;72.95
68801;SHT31;55784;50.734;7.086;2023-05-29T00:42:36;16.04;73.20
68801;SHT31;55784;50.734;7.086;2023-05-29T00:45:02;16.01;73.47
68801;SHT31;55784;50.734;7.086;2023-05-29T00:47:27;15.96;73.70
68801;SHT31;55784;50.734;7.086;2023-05-29T00:49:53;15.90;73.94
68801;SHT31;55784;50.734;7.086;2023-05-29T00:52:20;15.86;74.19
68801;SHT31;55784;50.734;7.086;2023-05-29T00:54:46;15.82;74.39
68801;SHT31;55784;50.734;7.086;2023-05-29T00:57:13;15.77;74.63
68801;SHT31;55784;50.734;7.086;2023-05-29T00:59:39;15.73;74.88
68801;SHT31;55784;50.734;7.086;2023-05-29T01:02:06;15.70;75.09
68801;SHT31;55784;50.734;7.086;2023-05-29T01:04:31;15.67;75.16
68801;SHT31;55784;50.734;7.086;2023-05-29T01:07:02;15.63;75.43
68801;SHT31;55784;50.734;7.086;2023-05-29T01:09:29;15.57;75.64
68801;SHT31;55784;50.734;7.086;2023-05-29T01:12:10;15.53;75.79
68801;SHT31;55784;50.734;7.086;2023-05-29T01:20:41;15.42;76.41
68801;SHT31;55784;50.734;7.086;2023-05-29T01:23:29;15.36;76.52
68801;SHT31;55784;50.734;7.086;2023-05-29T01:28:33;15.31;76.80
68801;SHT31;55784;50.734;7.086;2023-05-29T01:31:02;15.28;76.90
68801;SHT31;55784;50.734;7.086;2023-05-29T01:33:29;15.25;77.13
68801;SHT31;55784;50.734;7.086;2023-05-29T01:35:54;15.22;77.27
68801;SHT31;55784;50.734;7.086;2023-05-29T01:38:19;15.19;77.39
68801;SHT31;55784;50.734;7.086;2023-05-29T01:40:45;15.14;77.71
68801;SHT31;55784;50.734;7.086;2023-05-29T01:43:12;15.06;77.83
68801;SHT31;55784;50.734;7.086;2023-05-29T01:45:38;15.08;77.78
68801;SHT31;55784;50.734;7.086;2023-05-29T01:48:04;15.04;77.93
68801;SHT31;55784;50.734;7.086;2023-05-29T01:50:30;15.05;77.99
68801;SHT31;55784;50.734;7.086;2023-05-29T01:52:56;15.02;78.12
68801;SHT31;55784;50.734;7.086;2023-05-29T01:55:21;14.95;78.22
68801;SHT31;55784;50.734;7.086;2023-05-29T01:57:46;14.92;78.31
68801;SHT31;55784;50.734;7.086;2023-05-29T02:00:13;14.91;78.36
68801;SHT31;55784;50.734;7.086;2023-05-29T02:02:40;14.89;78.53
68801;SHT31;55784;50.734;7.086;2023-05-29T02:05:07;14.85;78.50
68801;SHT31;55784;50.734;7.086;2023-05-29T02:07:36;14.84;78.60
68801;SHT31;55784;50.734;7.086;2023-05-29T02:10:05;14.81;78.61
68801;SHT31;55784;50.734;7.086;2023-05-29T02:12:31;14.81;78.59
68801;SHT31;55784;50.734;7.086;2023-05-29T02:14:56;14.77;78.40
68801;SHT31;55784;50.734;7.086;2023-05-29T02:17:22;14.74;78.52
68801;SHT31;55784;50.734;7.086;2023-05-29T02:19:47;14.70;78.48
68801;SHT31;55784;50.734;7.086;2023-05-29T02:22:13;14.68;78.69
68801;SHT31;55784;50.734;7.086;2023-05-29T02:24:38;14.61;78.72
68801;SHT31;55784;50.734;7.086;2023-05-29T02:27:04;14.61;78.74
68801;SHT31;55784;50.734;7.086;2023-05-29T02:29:29;14.54;78.83
68801;SHT31;55784;50.734;7.086;2023-05-29T02:31:55;14.50;79.00
68801;SHT31;55784;50.734;7.086;2023-05-29T02:34:20;14.44;79.18
68801;SHT31;55784;50.734;7.086;2023-05-29T02:36:48;14.40;79.26
68801;SHT31;55784;50.734;7.086;2023-05-29T02:39:13;14.34;79.26
68801;SHT31;55784;50.734;7.086;2023-05-29T02:41:39;14.30;79.39
68801;SHT31;55784;50.734;7.086;2023-05-29T02:44:04;14.20;79.45
68801;SHT31;55784;50.734;7.086;2023-05-29T02:46:30;14.14;79.61
68801;SHT31;55784;50.734;7.086;2023-05-29T02:48:56;14.12;79.69
68801;SHT31;55784;50.734;7.086;2023-05-29T02:51:21;14.09;79.78
68801;SHT31;55784;50.734;7.086;2023-05-29T02:53:46;14.02;79.96
68801;SHT31;55784;50.734;7.086;2023-05-29T02:56:13;13.96;80.12
68801;SHT31;55784;50.734;7.086;2023-05-29T02:58:41;13.92;80.05
68801;SHT31;55784;50.734;7.086;2023-05-29T03:01:06;13.90;80.13
68801;SHT31;55784;50.734;7.086;2023-05-29T03:03:32;13.82;80.13
68801;SHT31;55784;50.734;7.086;2023-05-29T03:05:57;13.75;80.19
68801;SHT31;55784;50.734;7.086;2023-05-29T03:08:22;13.72;79.96
68801;SHT31;55784;50.734;7.086;2023-05-29T03:10:49;13.69;80.13
68801;SHT31;55784;50.734;7.086;2023-05-29T03:13:14;13.61;79.89
68801;SHT31;55784;50.734;7.086;2023-05-29T03:15:39;13.58;79.73
68801;SHT31;55784;50.734;7.086;2023-05-29T03:18:05;13.58;79.63
68801;SHT31;55784;50.734;7.086;2023-05-29T03:20:30;13.55;79.43
68801;SHT31;55784;50.734;7.086;2023-05-29T03:22:56;13.45;79.66
68801;SHT31;55784;50.734;7.086;2023-05-29T03:25:22;13.45;79.57
68801;SHT31;55784;50.734;7.086;2023-05-29T03:27:47;13.44;79.58
68801;SHT31;55784;50.734;7.086;2023-05-29T03:30:13;13.41;79.55
68801;SHT31;55784;50.734;7.086;2023-05-29T03:32:38;13.37;79.70
68801;SHT31;55784;50.734;7.086;2023-05-29T03:35:04;13.35;79.47
68801;SHT31;55784;50.734;7.086;2023-05-29T03:37:29;13.29;79.48
68801;SHT31;55784;50.734;7.086;2023-05-29T03:39:55;13.29;79.42
68801;SHT31;55784;50.734;7.086;2023-05-29T03:42:20;13.29;79.43
68801;SHT31;55784;50.734;7.086;2023-05-29T03:44:46;13.27;79.47
68801;SHT31;55784;50.734;7.086;2023-05-29T03:47:11;13.22;79.49
68801;SHT31;55784;50.734;7.086;2023-05-29T03:49:37;13.25;79.22
68801;SHT31;55784;50.734;7.086;2023-05-29T03:52:03;13.24;79.26
68801;SHT31;55784;50.734;7.086;2023-05-29T03:54:28;13.18;79.54
68801;SHT31;55784;50.734;7.086;2023-05-29T03:56:53;13.14;79.71
68801;SHT31;55784;50.734;7.086;2023-05-29T03:59:19;13.15;79.59
68801;SHT31;55784;50.734;7.086;2023-05-29T04:01:44;13.12;79.55
68801;SHT31;55784;50.734;7.086;2023-05-29T04:04:10;13.15;79.60
68801;SHT31;55784;50.734;7.086;2023-05-29T04:06:35;13.15;79.57
68801;SHT31;55784;50.734;7.086;2023-05-29T04:09:06;13.18;79.40
68801;SHT31;55784;50.734;7.086;2023-05-29T04:11:33;13.48;78.36
68801;SHT31;55784;50.734;7.086;2023-05-29T04:14:00;13.78;77.38
68801;SHT31;55784;50.734;7.086;2023-05-29T04:16:27;14.03;76.60
68801;SHT31;55784;50.734;7.086;2023-05-29T04:18:54;14.06;76.12
68801;SHT31;55784;50.734;7.086;2023-05-29T04:21:19;14.20;75.70
68801;SHT31;55784;50.734;7.086;2023-05-29T04:23:44;14.31;75.45
68801;SHT31;55784;50.734;7.086;2023-05-29T04:26:10;14.45;75.00
68801;SHT31;55784;50.734;7.086;2023-05-29T04:28:35;14.45;74.98
68801;SHT31;55784;50.734;7.086;2023-05-29T04:31:02;14.63;74.21
68801;SHT31;55784;50.734;7.086;2023-05-29T04:33:27;14.56;74.43
68801;SHT31;55784;50.734;7.086;2023-05-29T04:35:54;14.74;73.98
68801;SHT31;55784;50.734;7.086;2023-05-29T04:38:20;14.91;73.26
68801;SHT31;55784;50.734;7.086;2023-05-29T04:40:50;15.06;72.74
68801;SHT31;55784;50.734;7.086;2023-05-29T04:43:16;15.14;72.20
68801;SHT31;55784;50.734;7.086;2023-05-29T04:45:41;15.16;72.31
68801;SHT31;55784;50.734;7.086;2023-05-29T04:48:07;15.09;72.46
68801;SHT31;55784;50.734;7.086;2023-05-29T04:50:33;15.22;71.82
68801;SHT31;55784;50.734;7.086;2023-05-29T04:53:00;15.50;71.11
68801;SHT31;55784;50.734;7.086;2023-05-29T04:55:26;15.60;70.72
68801;SHT31;55784;50.734;7.086;2023-05-29T04:57:51;15.67;70.45
68801;SHT31;55784;50.734;7.086;2023-05-29T05:00:18;15.71;70.15
68801;SHT31;55784;50.734;7.086;2023-05-29T05:02:44;15.63;70.04
68801;SHT31;55784;50.734;7.086;2023-05-29T05:05:10;15.57;70.79
68801;SHT31;55784;50.734;7.086;2023-05-29T05:07:35;15.57;70.27
68801;SHT31;55784;50.734;7.086;2023-05-29T05:10:04;15.59;70.41
68801;SHT31;55784;50.734;7.086;2023-05-29T05:12:30;15.85;70.08
68801;SHT31;55784;50.734;7.086;2023-05-29T05:14:55;15.69;70.29
68801;SHT31;55784;50.734;7.086;2023-05-29T05:17:20;15.89;69.61
68801;SHT31;55784;50.734;7.086;2023-05-29T05:19:46;16.18;68.87
68801;SHT31;55784;50.734;7.086;2023-05-29T05:22:13;16.06;68.83
68801;SHT31;55784;50.734;7.086;2023-05-29T05:24:39;16.01;69.26
68801;SHT31;55784;50.734;7.086;2023-05-29T05:27:04;16.13;68.50
68801;SHT31;55784;50.734;7.086;2023-05-29T05:29:30;16.22;68.48
68801;SHT31;55784;50.734;7.086;2023-05-29T05:31:55;16.20;68.68
68801;SHT31;55784;50.734;7.086;2023-05-29T05:34:21;16.18;68.81
68801;SHT31;55784;50.734;7.086;2023-05-29T05:36:46;16.32;68.45
68801;SHT31;55784;50.734;7.086;2023-05-29T05:39:11;15.87;69.05
68801;SHT31;55784;50.734;7.086;2023-05-29T05:41:37;15.89;69.61
68801;SHT31;55784;50.734;7.086;2023-05-29T05:44:03;15.74;69.97
68801;SHT31;55784;50.734;7.086;2023-05-29T05:46:28;15.89;69.86
68801;SHT31;55784;50.734;7.086;2023-05-29T05:48:54;16.28;68.79
68801;SHT31;55784;50.734;7.086;2023-05-29T05:51:22;16.11;68.72
68801;SHT31;55784;50.734;7.086;2023-05-29T05:53:47;16.20;68.83
68801;SHT31;55784;50.734;7.086;2023-05-29T05:56:13;16.06;68.86
68801;SHT31;55784;50.734;7.086;2023-05-29T05:58:39;16.32;68.18
68801;SHT31;55784;50.734;7.086;2023-05-29T06:01:04;16.10;69.10
68801;SHT31;55784;50.734;7.086;2023-05-29T06:03:32;16.44;68.37
68801;SHT31;55784;50.734;7.086;2023-05-29T06:05:58;16.18;68.82
68801;SHT31;55784;50.734;7.086;2023-05-29T06:08:23;16.01;69.16
68801;SHT31;55784;50.734;7.086;2023-05-29T06:10:49;16.28;68.70
68801;SHT31;55784;50.734;7.086;2023-05-29T06:13:14;16.03;69.01
68801;SHT31;55784;50.734;7.086;2023-05-29T06:15:42;16.04;69.16
68801;SHT31;55784;50.734;7.086;2023-05-29T06:18:07;16.07;69.09
68801;SHT31;55784;50.734;7.086;2023-05-29T06:20:32;15.93;69.56
68801;SHT31;55784;50.734;7.086;2023-05-29T06:22:58;15.96;69.18
68801;SHT31;55784;50.734;7.086;2023-05-29T06:25:24;15.91;69.63
68801;SHT31;55784;50.734;7.086;2023-05-29T06:27:58;16.31;68.62
68801;SHT31;55784;50.734;7.086;2023-05-29T06:30:23;16.38;68.58
68801;SHT31;55784;50.734;7.086;2023-05-29T06:32:48;16.45;68.13
68801;SHT31;55784;50.734;7.086;2023-05-29T06:35:14;16.35;68.37
68801;SHT31;55784;50.734;7.086;2023-05-29T06:37:39;16.28;68.56
68801;SHT31;55784;50.734;7.086;2023-05-29T06:40:05;16.35;68.43
68801;SHT31;55784;50.734;7.086;2023-05-29T06:42:31;16.01;69.56
68801;SHT31;55784;50.734;7.086;2023-05-29T06:44:56;16.13;69.20
68801;SHT31;55784;50.734;7.086;2023-05-29T06:47:21;16.04;69.44
68801;SHT31;55784;50.734;7.086;2023-05-29T06:49:47;15.86;69.81
68801;SHT31;55784;50.734;7.086;2023-05-29T06:52:12;15.85;70.27
68801;SHT31;55784;50.734;7.086;2023-05-29T06:54:37;16.00;70.37
68801;SHT31;55784;50.734;7.086;2023-05-29T06:57:03;15.94;70.05
68801;SHT31;55784;50.734;7.086;2023-05-29T06:59:28;15.79;70.35
68801;SHT31;55784;50.734;7.086;2023-05-29T07:01:53;15.74;70.38
68801;SHT31;55784;50.734;7.086;2023-05-29T07:04:19;15.71;70.78
68801;SHT31;55784;50.734;7.086;2023-05-29T07:06:44;15.60;70.87
68801;SHT31;55784;50.734;7.086;2023-05-29T07:09:09;15.60;71.09
68801;SHT31;55784;50.734;7.086;2023-05-29T07:11:35;15.40;71.49
68801;SHT31;55784;50.734;7.086;2023-05-29T07:14:00;15.62;71.19
68801;SHT31;55784;50.734;7.086;2023-05-29T07:16:25;15.90;70.54
68801;SHT31;55784;50.734;7.086;2023-05-29T07:18:51;16.00;70.32
68801;SHT31;55784;50.734;7.086;2023-05-29T07:21:17;16.01;69.91
68801;SHT31;55784;50.734;7.086;2023-05-29T07:23:43;15.97;69.83
68801;SHT31;55784;50.734;7.086;2023-05-29T07:26:08;15.87;70.30
68801;SHT31;55784;50.734;7.086;2023-05-29T07:28:33;15.73;70.93
68801;SHT31;55784;50.734;7.086;2023-05-29T07:30:59;15.93;70.38
68801;SHT31;55784;50.734;7.086;2023-05-29T07:33:24;16.18;70.20
68801;SHT31;55784;50.734;7.086;2023-05-29T07:35:50;16.01;70.59
68801;SHT31;55784;50.734;7.086;2023-05-29T07:38:15;15.97;70.27
68801;SHT31;55784;50.734;7.086;2023-05-29T07:40:41;16.04;69.97
68801;SHT31;55784;50.734;7.086;2023-05-29T07:43:06;16.25;69.63
68801;SHT31;55784;50.734;7.086;2023-05-29T07:45:31;16.37;69.45
68801;SHT31;55784;50.734;7.086;2023-05-29T07:47:57;16.47;69.20
68801;SHT31;55784;50.734;7.086;2023-05-29T07:50:22;16.47;69.13
68801;SHT31;55784;50.734;7.086;2023-05-29T07:52:47;16.58;68.91
68801;SHT31;55784;50.734;7.086;2023-05-29T07:55:13;16.35;68.94
68801;SHT31;55784;50.734;7.086;2023-05-29T07:57:38;16.38;69.14
68801;SHT31;55784;50.734;7.086;2023-05-29T08:00:04;16.35;69.19
68801;SHT31;55784;50.734;7.086;2023-05-29T08:02:34;16.40;69.24
68801;SHT31;55784;50.734;7.086;2023-05-29T08:05:01;16.48;68.90
68801;SHT31;55784;50.734;7.086;2023-05-29T08:07:26;16.55;68.88
68801;SHT31;55784;50.734;7.086;2023-05-29T08:09:54;16.72;68.64
68801;SHT31;55784;50.734;7.086;2023-05-29T08:12:19;16.82;69.25
68801;SHT31;55784;50.734;7.086;2023-05-29T08:14:44;16.95;68.01
68801;SHT31;55784;50.734;7.086;2023-05-29T08:17:09;17.06;67.66
68801;SHT31;55784;50.734;7.086;2023-05-29T08:19:35;16.95;67.71
68801;SHT31;55784;50.734;7.086;2023-05-29T08:22:00;16.95;67.81
68801;SHT31;55784;50.734;7.086;2023-05-29T08:24:25;17.06;67.88
68801;SHT31;55784;50.734;7.086;2023-05-29T08:26:51;17.13;67.38
68801;SHT31;55784;50.734;7.086;2023-05-29T08:29:16;17.29;67.18
68801;SHT31;55784;50.734;7.086;2023-05-29T08:31:42;17.10;67.45
68801;SHT31;55784;50.734;7.086;2023-05-29T08:34:07;17.08;67.76
68801;SHT31;55784;50.734;7.086;2023-05-29T08:36:33;17.22;67.17
68801;SHT31;55784;50.734;7.086;2023-05-29T08:38:58;17.23;67.28
68801;SHT31;55784;50.734;7.086;2023-05-29T08:44:22;17.33;67.12
68801;SHT31;55784;50.734;7.086;2023-05-29T08:46:51;17.37;67.20
68801;SHT31;55784;50.734;7.086;2023-05-29T08:49:19;17.42;67.06
68801;SHT31;55784;50.734;7.086;2023-05-29T08:51:49;17.43;66.49
68801;SHT31;55784;50.734;7.086;2023-05-29T08:54:18;17.60;65.84
68801;SHT31;55784;50.734;7.086;2023-05-29T08:56:44;17.55;65.90
68801;SHT31;55784;50.734;7.086;2023-05-29T08:59:10;17.59;65.36
68801;SHT31;55784;50.734;7.086;2023-05-29T09:01:37;17.75;64.98
68801;SHT31;55784;50.734;7.086;2023-05-29T09:04:04;17.88;64.54
68801;SHT31;55784;50.734;7.086;2023-05-29T09:06:29;18.00;63.77
68801;SHT31;55784;50.734;7.086;2023-05-29T09:08:56;17.84;64.50
68801;SHT31;55784;50.734;7.086;2023-05-29T09:11:22;18.05;63.68
68801;SHT31;55784;50.734;7.086;2023-05-29T09:13:48;18.12;63.54
68801;SHT31;55784;50.734;7.086;2023-05-29T09:16:16;18.05;63.68
68801;SHT31;55784;50.734;7.086;2023-05-29T09:18:42;18.22;63.50
68801;SHT31;55784;50.734;7.086;2023-05-29T09:21:25;18.44;62.89
68801;SHT31;55784;50.734;7.086;2023-05-29T09:23:54;18.75;62.40
68801;SHT31;55784;50.734;7.086;2023-05-29T09:26:27;18.79;61.91
68801;SHT31;55784;50.734;7.086;2023-05-29T09:28:53;18.97;61.65
68801;SHT31;55784;50.734;7.086;2023-05-29T09:31:18;19.27;61.11
68801;SHT31;55784;50.734;7.086;2023-05-29T09:33:47;19.34;60.77
68801;SHT31;55784;50.734;7.086;2023-05-29T09:36:21;18.90;60.93
68801;SHT31;55784;50.734;7.086;2023-05-29T09:38:50;19.04;61.14
68801;SHT31;55784;50.734;7.086;2023-05-29T09:41:22;19.06;61.31
68801;SHT31;55784;50.734;7.086;2023-05-29T09:43:49;18.82;61.78
68801;SHT31;55784;50.734;7.086;2023-05-29T09:46:15;18.70;62.16
68801;SHT31;55784;50.734;7.086;2023-05-29T09:48:44;18.85;61.87
68801;SHT31;55784;50.734;7.086;2023-05-29T09:51:22;19.02;61.44
68801;SHT31;55784;50.734;7.086;2023-05-29T09:53:48;19.24;61.21
68801;SHT31;55784;50.734;7.086;2023-05-29T09:56:16;19.37;60.46
68801;SHT31;55784;50.734;7.086;2023-05-29T09:58:43;19.44;60.50
68801;SHT31;55784;50.734;7.086;2023-05-29T10:01:15;19.62;59.79
68801;SHT31;55784;50.734;7.086;2023-05-29T10:03:43;19.86;59.65
68801;SHT31;55784;50.734;7.086;2023-05-29T10:06:11;19.60;59.97
68801;SHT31;55784;50.734;7.086;2023-05-29T10:08:45;19.68;59.82
68801;SHT31;55784;50.734;7.086;2023-05-29T10:11:18;19.86;60.18
68801;SHT31;55784;50.734;7.086;2023-05-29T10:13:48;19.93;59.12
68801;SHT31;55784;50.734;7.086;2023-05-29T10:16:15;20.06;59.55
68801;SHT31;55784;50.734;7.086;2023-05-29T10:18:44;20.01;59.25
68801;SHT31;55784;50.734;7.086;2023-05-29T10:21:15;20.23;58.72
68801;SHT31;55784;50.734;7.086;2023-05-29T10:23:43;20.42;58.11
68801;SHT31;55784;50.734;7.086;2023-05-29T10:26:14;20.19;58.54
68801;SHT31;55784;50.734;7.086;2023-05-29T10:28:44;20.29;59.21
68801;SHT31;55784;50.734;7.086;2023-05-29T10:31:17;20.18;58.64
68801;SHT31;55784;50.734;7.086;2023-05-29T10:39:51;20.76;57.35
68801;SHT31;55784;50.734;7.086;2023-05-29T10:45:04;20.53;57.65
68801;SHT31;55784;50.734;7.086;2023-05-29T10:47:30;20.62;57.74
68801;SHT31;55784;50.734;7.086;2023-05-29T10:50:02;20.79;57.82
68801;SHT31;55784;50.734;7.086;2023-05-29T10:52:34;21.00;57.34
68801;SHT31;55784;50.734;7.086;2023-05-29T10:55:01;21.15;57.11
68801;SHT31;55784;50.734;7.086;2023-05-29T10:57:29;21.01;57.18
68801;SHT31;55784;50.734;7.086;2023-05-29T11:00:15;21.10;57.25
68801;SHT31;55784;50.734;7.086;2023-05-29T11:02:43;21.28;56.83
68801;SHT31;55784;50.734;7.086;2023-05-29T11:05:19;21.04;57.24
68801;SHT31;55784;50.734;7.086;2023-05-29T11:07:56;21.34;57.15
68801;SHT31;55784;50.734;7.086;2023-05-29T11:13:34;21.55;56.51
68801;SHT31;55784;50.734;7.086;2023-05-29T11:16:14;21.24;57.20
68801;SHT31;55784;50.734;7.086;2023-05-29T11:18:45;21.38;56.84
68801;SHT31;55784;50.734;7.086;2023-05-29T11:24:05;21.30;57.20
68801;SHT31;55784;50.734;7.086;2023-05-29T11:26:32;21.51;56.74
68801;SHT31;55784;50.734;7.086;2023-05-29T11:28:59;21.65;56.56
68801;SHT31;55784;50.734;7.086;2023-05-29T11:31:27;21.57;56.20
68801;SHT31;55784;50.734;7.086;2023-05-29T11:33:54;21.37;56.47
68801;SHT31;55784;50.734;7.086;2023-05-29T11:36:23;21.51;56.59
68801;SHT31;55784;50.734;7.086;2023-05-29T11:38:51;21.42;56.20
68801;SHT31;55784;50.734;7.086;2023-05-29T11:41:17;21.42;56.54
68801;SHT31;55784;50.734;7.086;2023-05-29T11:43:42;21.32;56.84
68801;SHT31;55784;50.734;7.086;2023-05-29T11:46:18;21.45;56.17
68801;SHT31;55784;50.734;7.086;2023-05-29T11:48:47;21.48;56.56
68801;SHT31;55784;50.734;7.086;2023-05-29T11:51:13;21.72;56.31
68801;SHT31;55784;50.734;7.086;2023-05-29T11:53:43;21.74;56.03
68801;SHT31;55784;50.734;7.086;2023-05-29T11:56:11;21.61;56.21
68801;SHT31;55784;50.734;7.086;2023-05-29T11:58:45;21.52;57.11
68801;SHT31;55784;50.734;7.086;2023-05-29T12:01:11;21.57;56.61
68801;SHT31;55784;50.734;7.086;2023-05-29T12:03:43;21.83;56.54
68801;SHT31;55784;50.734;7.086;2023-05-29T12:06:11;21.79;55.92
68801;SHT31;55784;50.734;7.086;2023-05-29T12:08:37;21.86;55.87
68801;SHT31;55784;50.734;7.086;2023-05-29T12:11:03;21.83;56.03
68801;SHT31;55784;50.734;7.086;2023-05-29T12:13:28;22.03;55.87
68801;SHT31;55784;50.734;7.086;2023-05-29T12:15:56;22.12;56.01
68801;SHT31;55784;50.734;7.086;2023-05-29T12:18:23;21.89;56.07
68801;SHT31;55784;50.734;7.086;2023-05-29T12:20:49;22.00;55.72
68801;SHT31;55784;50.734;7.086;2023-05-29T12:23:17;22.00;55.78
68801;SHT31;55784;50.734;7.086;2023-05-29T12:25:46;22.13;55.50
68801;SHT31;55784;50.734;7.086;2023-05-29T12:28:16;22.09;55.40
68801;SHT31;55784;50.734;7.086;2023-05-29T12:30:42;22.39;55.14
68801;SHT31;55784;50.734;7.086;2023-05-29T12:33:24;22.20;55.34
68801;SHT31;55784;50.734;7.086;2023-05-29T12:35:49;22.44;54.97
68801;SHT31;55784;50.734;7.086;2023-05-29T12:38:48;22.46;55.07
68801;SHT31;55784;50.734;7.086;2023-05-29T12:41:58;22.59;54.53
68801;SHT31;55784;50.734;7.086;2023-05-29T12:48:43;22.60;54.19
68801;SHT31;55784;50.734;7.086;2023-05-29T13:09:14;22.26;54.28
68801;SHT31;55784;50.734;7.086;2023-05-29T13:21:24;22.70;53.61
68801;SHT31;55784;50.734;7.086;2023-05-29T13:28:04;22.73;53.63
68801;SHT31;55784;50.734;7.086;2023-05-29T13:30:56;22.73;53.11
68801;SHT31;55784;50.734;7.086;2023-05-29T13:33:22;22.84;52.99
68801;SHT31;55784;50.734;7.086;2023-05-29T13:35:48;22.80;53.21
68801;SHT31;55784;50.734;7.086;2023-05-29T13:38:13;22.86;52.85
68801;SHT31;55784;50.734;7.086;2023-05-29T13:40:39;22.92;52.75
68801;SHT31;55784;50.734;7.086;2023-05-29T13:43:04;22.77;52.70
68801;SHT31;55784;50.734;7.086;2023-05-29T13:45:29;22.91;52.37
68801;SHT31;55784;50.734;7.086;2023-05-29T13:47:55;22.97;52.04
68801;SHT31;55784;50.734;7.086;2023-05-29T13:50:21;23.08;51.97
68801;SHT31;55784;50.734;7.086;2023-05-29T13:52:48;23.11;51.94
68801;SHT31;55784;50.734;7.086;2023-05-29T13:55:14;22.95;51.87
68801;SHT31;55784;50.734;7.086;2023-05-29T13:57:40;23.08;52.22
68801;SHT31;55784;50.734;7.086;2023-05-29T14:00:06;22.98;52.04
68801;SHT31;55784;50.734;7.086;2023-05-29T14:02:32;22.92;52.11
68801;SHT31;55784;50.734;7.086;2023-05-29T14:04:58;23.14;51.78
68801;SHT31;55784;50.734;7.086;2023-05-29T14:07:23;22.86;51.90
68801;SHT31;55784;50.734;7.086;2023-05-29T14:09:49;23.15;51.78
68801;SHT31;55784;50.734;7.086;2023-05-29T14:12:15;23.07;51.89
68801;SHT31;55784;50.734;7.086;2023-05-29T14:14:40;23.01;52.26
68801;SHT31;55784;50.734;7.086;2023-05-29T14:17:05;22.98;52.32
68801;SHT31;55784;50.734;7.086;2023-05-29T14:19:31;22.98;51.96
68801;SHT31;55784;50.734;7.086;2023-05-29T14:21:56;23.01;51.99
68801;SHT31;55784;50.734;7.086;2023-05-29T14:24:22;22.90;51.56
68801;SHT31;55784;50.734;7.086;2023-05-29T14:26:47;22.86;51.80
68801;SHT31;55784;50.734;7.086;2023-05-29T14:29:13;22.81;51.18
68801;SHT31;55784;50.734;7.086;2023-05-29T14:31:42;22.74;51.51
68801;SHT31;55784;50.734;7.086;2023-05-29T14:34:07;23.02;51.42
68801;SHT31;55784;50.734;7.086;2023-05-29T14:36:33;22.86;51.13
68801;SHT31;55784;50.734;7.086;2023-05-29T14:38:58;22.81;51.40
68801;SHT31;55784;50.734;7.086;2023-05-29T14:41:23;23.05;51.02
68801;SHT31;55784;50.734;7.086;2023-05-29T14:43:50;22.84;51.45
68801;SHT31;55784;50.734;7.086;2023-05-29T14:46:17;22.74;51.78
68801;SHT31;55784;50.734;7.086;2023-05-29T14:48:42;22.74;50.67
68801;SHT31;55784;50.734;7.086;2023-05-29T14:51:07;22.63;50.89
68801;SHT31;55784;50.734;7.086;2023-05-29T14:53:33;22.59;50.40
68801;SHT31;55784;50.734;7.086;2023-05-29T14:55:58;22.65;50.76
68801;SHT31;55784;50.734;7.086;2023-05-29T14:58:23;22.73;50.26
68801;SHT31;55784;50.734;7.086;2023-05-29T15:00:48;23.00;50.66
68801;SHT31;55784;50.734;7.086;2023-05-29T15:03:14;22.88;50.65
68801;SHT31;55784;50.734;7.086;2023-05-29T15:05:39;22.74;51.08
68801;SHT31;55784;50.734;7.086;2023-05-29T15:08:05;22.74;51.22
68801;SHT31;55784;50.734;7.086;2023-05-29T15:10:30;22.75;50.64
68801;SHT31;55784;50.734;7.086;2023-05-29T15:12:55;22.78;51.10
68801;SHT31;55784;50.734;7.086;2023-05-29T15:15:27;22.91;51.10
68801;SHT31;55784;50.734;7.086;2023-05-29T15:17:53;22.91;50.41
68801;SHT31;55784;50.734;7.086;2023-05-29T15:20:25;22.81;50.70
68801;SHT31;55784;50.734;7.086;2023-05-29T15:22:51;22.87;50.79
68801;SHT31;55784;50.734;7.086;2023-05-29T15:25:18;22.81;50.47
68801;SHT31;55784;50.734;7.086;2023-05-29T15:27:44;22.80;50.54
68801;SHT31;55784;50.734;7.086;2023-05-29T15:30:13;22.81;50.50
68801;SHT31;55784;50.734;7.086;2023-05-29T15:32:39;22.68;50.89
68801;SHT31;55784;50.734;7.086;2023-05-29T15:35:11;22.56;51.47
68801;SHT31;55784;50.734;7.086;2023-05-29T15:37:37;22.53;51.56
68801;SHT31;55784;50.734;7.086;2023-05-29T15:40:03;22.83;51.05
68801;SHT31;55784;50.734;7.086;2023-05-29T15:42:29;22.68;50.83
68801;SHT31;55784;50.734;7.086;2023-05-29T15:44:54;22.78;51.23
68801;SHT31;55784;50.734;7.086;2023-05-29T15:47:19;22.47;51.17
68801;SHT31;55784;50.734;7.086;2023-05-29T15:49:45;22.28;51.42
68801;SHT31;55784;50.734;7.086;2023-05-29T15:52:10;22.43;51.37
68801;SHT31;55784;50.734;7.086;2023-05-29T15:54:35;22.51;51.19
68801;SHT31;55784;50.734;7.086;2023-05-29T15:57:01;22.33;51.26
68801;SHT31;55784;50.734;7.086;2023-05-29T15:59:28;22.43;50.92
68801;SHT31;55784;50.734;7.086;2023-05-29T16:01:53;22.29;51.17
68801;SHT31;55784;50.734;7.086;2023-05-29T16:04:19;22.26;51.28
68801;SHT31;55784;50.734;7.086;2023-05-29T16:06:44;22.40;51.57
68801;SHT31;55784;50.734;7.086;2023-05-29T16:09:09;22.49;51.17
68801;SHT31;55784;50.734;7.086;2023-05-29T16:11:34;22.54;50.87
68801;SHT31;55784;50.734;7.086;2023-05-29T16:14:00;22.40;51.00
68801;SHT31;55784;50.734;7.086;2023-05-29T16:16:25;22.29;51.55
68801;SHT31;55784;50.734;7.086;2023-05-29T16:18:55;22.33;51.45
68801;SHT31;55784;50.734;7.086;2023-05-29T16:21:20;22.46;51.09
68801;SHT31;55784;50.734;7.086;2023-05-29T16:23:46;22.33;51.45
68801;SHT31;55784;50.734;7.086;2023-05-29T16:26:11;22.41;50.97
68801;SHT31;55784;50.734;7.086;2023-05-29T16:28:37;22.53;50.66
68801;SHT31;55784;50.734;7.086;2023-05-29T16:31:02;22.53;50.87